createdAt,value
2023-08-06T00:00:27.065Z,63.09
2023-08-06T00:02:53.813Z,63.36
2023-08-06T00:05:22.056Z,63.84
2023-08-06T00:07:49.236Z,64.57
2023-08-06T00:10:15.612Z,64.79
2023-08-06T00:12:42.177Z,66.18
2023-08-06T00:15:09.293Z,66.17
2023-08-06T00:17:38.763Z,66.84
2023-08-06T00:20:07.252Z,65.77
2023-08-06T00:22:34.087Z,66.30
2023-08-06T00:25:00.595Z,65.48
2023-08-06T00:27:27.280Z,65.40
2023-08-06T00:29:53.809Z,65.83
2023-08-06T00:32:20.381Z,65.33
2023-08-06T00:34:46.759Z,66.21
2023-08-06T00:37:13.107Z,65.83
2023-08-06T00:39:39.460Z,66.11
2023-08-06T00:42:05.895Z,65.63
2023-08-06T00:44:32.280Z,66.68
2023-08-06T00:46:59.403Z,66.56
2023-08-06T00:49:25.818Z,66.47
2023-08-06T00:51:52.805Z,66.95
2023-08-06T00:54:19.352Z,65.81
2023-08-06T00:56:46.370Z,66.25
2023-08-06T00:59:13.128Z,65.55
2023-08-06T01:01:39.529Z,65.87
2023-08-06T01:04:05.916Z,65.75
2023-08-06T01:06:45.608Z,65.31
2023-08-06T01:09:46.366Z,66.46
2023-08-06T01:12:57.252Z,66.55
2023-08-06T01:15:32.529Z,65.98
2023-08-06T01:17:59.511Z,67.06
2023-08-06T01:20:32.416Z,67.54
2023-08-06T01:22:58.818Z,67.19
2023-08-06T01:25:32.164Z,67.58
2023-08-06T01:28:04.284Z,67.76
2023-08-06T01:30:36.918Z,67.37
2023-08-06T01:33:06.944Z,67.36
2023-08-06T01:35:33.920Z,66.37
2023-08-06T01:38:03.672Z,66.25
2023-08-06T01:40:30.736Z,66.02
2023-08-06T01:42:57.135Z,66.81
2023-08-06T01:45:23.520Z,65.56
2023-08-06T01:47:49.918Z,66.19
2023-08-06T01:50:16.326Z,66.82
2023-08-06T01:52:42.694Z,67.22
2023-08-06T01:55:09.143Z,66.32
2023-08-06T01:57:35.492Z,65.86
2023-08-06T02:00:01.893Z,65.15
2023-08-06T02:02:28.351Z,65.00
2023-08-06T02:04:54.732Z,65.49
2023-08-06T02:07:21.093Z,65.57
2023-08-06T02:09:47.444Z,65.70
2023-08-06T02:12:13.806Z,65.78
2023-08-06T02:14:40.161Z,65.33
2023-08-06T02:17:06.687Z,64.49
2023-08-06T02:19:33.023Z,65.04
2023-08-06T02:21:59.407Z,64.21
2023-08-06T02:24:25.772Z,64.89
2023-08-06T02:26:52.546Z,65.41
2023-08-06T02:29:19.165Z,65.06
2023-08-06T02:31:45.634Z,65.64
2023-08-06T02:34:12.095Z,65.96
2023-08-06T02:36:38.472Z,67.26
2023-08-06T02:39:04.824Z,68.54
2023-08-06T02:41:31.160Z,67.89
2023-08-06T02:43:57.516Z,68.27
2023-08-06T02:46:23.954Z,68.74
2023-08-06T02:48:50.301Z,69.50
2023-08-06T02:51:16.648Z,69.31
2023-08-06T02:53:43.026Z,69.82
2023-08-06T02:56:09.379Z,69.06
2023-08-06T02:58:35.734Z,69.96
2023-08-06T03:01:06.732Z,70.73
2023-08-06T03:03:33.473Z,70.27
2023-08-06T03:06:00.031Z,70.77
2023-08-06T03:08:26.974Z,69.74
2023-08-06T03:10:53.383Z,69.24
2023-08-06T03:13:19.948Z,68.29
2023-08-06T03:15:55.008Z,69.30
2023-08-06T03:18:22.232Z,70.25
2023-08-06T03:20:48.877Z,69.91
2023-08-06T03:23:15.318Z,69.30
2023-08-06T03:25:41.683Z,68.70
2023-08-06T03:28:08.037Z,68.80
2023-08-06T03:30:34.474Z,67.75
2023-08-06T03:33:00.860Z,68.56
2023-08-06T03:35:27.280Z,68.16
2023-08-06T03:37:53.666Z,67.91
2023-08-06T03:40:20.123Z,68.32
2023-08-06T03:42:46.471Z,67.90
2023-08-06T03:45:12.822Z,68.72
2023-08-06T03:47:39.210Z,69.81
2023-08-06T03:50:05.910Z,70.32
2023-08-06T03:52:32.250Z,70.33
2023-08-06T03:54:58.667Z,70.37
2023-08-06T03:57:25.018Z,69.09
2023-08-06T03:59:55.257Z,69.53
2023-08-06T04:02:22.054Z,69.52
2023-08-06T04:04:48.544Z,69.54
2023-08-06T04:07:14.890Z,69.53
2023-08-06T04:09:59.344Z,70.17
2023-08-06T04:12:26.089Z,69.89
2023-08-06T04:14:55.946Z,70.63
2023-08-06T04:17:22.956Z,70.85
2023-08-06T04:19:51.534Z,72.27
2023-08-06T04:22:18.213Z,71.05
2023-08-06T04:24:44.811Z,70.57
2023-08-06T04:27:12.088Z,73.26
2023-08-06T04:29:38.852Z,72.91
2023-08-06T04:32:08.887Z,73.16
2023-08-06T04:34:36.241Z,73.30
2023-08-06T04:37:03.765Z,73.67
2023-08-06T04:39:30.414Z,74.29
2023-08-06T04:41:58.562Z,73.60
2023-08-06T04:44:24.934Z,73.42
2023-08-06T04:46:51.623Z,73.19
2023-08-06T04:49:18.919Z,74.01
2023-08-06T04:51:45.317Z,73.54
2023-08-06T04:54:11.652Z,73.47
2023-08-06T04:56:38.103Z,73.90
2023-08-06T04:59:04.481Z,74.35
2023-08-06T05:01:31.008Z,74.58
2023-08-06T05:03:57.455Z,73.66
2023-08-06T05:06:23.850Z,73.26
2023-08-06T05:08:50.199Z,73.14
2023-08-06T05:11:16.671Z,73.56
2023-08-06T05:13:43.049Z,72.97
2023-08-06T05:16:09.560Z,73.42
2023-08-06T05:18:35.959Z,73.44
2023-08-06T05:21:02.381Z,72.96
2023-08-06T05:23:28.724Z,73.13
2023-08-06T05:25:55.065Z,73.13
2023-08-06T05:28:21.478Z,73.99
2023-08-06T05:30:47.871Z,74.83
2023-08-06T05:33:14.302Z,74.99
2023-08-06T05:35:42.114Z,75.74
2023-08-06T05:38:08.537Z,74.52
2023-08-06T05:40:35.528Z,74.59
2023-08-06T05:43:02.017Z,75.37
2023-08-06T05:45:28.392Z,74.08
2023-08-06T05:47:58.875Z,74.34
2023-08-06T05:50:25.851Z,73.93
2023-08-06T05:52:52.868Z,73.66
2023-08-06T05:55:20.779Z,73.44
2023-08-06T05:57:47.196Z,73.81
2023-08-06T06:00:13.596Z,74.24
2023-08-06T06:02:39.992Z,75.50
2023-08-06T06:05:06.543Z,75.44
2023-08-06T06:07:32.907Z,74.87
2023-08-06T06:09:59.496Z,74.98
2023-08-06T06:12:27.235Z,73.80
2023-08-06T06:14:53.620Z,74.09
2023-08-06T06:17:20.104Z,73.97
2023-08-06T06:19:46.615Z,75.31
2023-08-06T06:22:12.995Z,75.92
2023-08-06T06:24:39.440Z,75.95
2023-08-06T06:27:06.109Z,76.03
2023-08-06T06:29:32.465Z,75.56
2023-08-06T06:31:58.903Z,76.59
2023-08-06T06:34:25.247Z,75.59
2023-08-06T06:36:51.600Z,76.26
2023-08-06T06:39:18.735Z,76.75
2023-08-06T06:41:45.340Z,76.67
2023-08-06T06:44:11.950Z,77.20
2023-08-06T06:46:38.356Z,76.88
2023-08-06T06:49:04.786Z,77.45
2023-08-06T06:51:32.935Z,77.88
2023-08-06T06:53:59.590Z,76.97
2023-08-06T06:56:25.957Z,75.87
2023-08-06T06:58:52.298Z,77.59
2023-08-06T07:01:18.918Z,77.18
2023-08-06T07:03:45.475Z,77.20
2023-08-06T07:06:13.345Z,77.00
2023-08-06T07:08:39.870Z,78.68
2023-08-06T07:11:07.642Z,78.86
2023-08-06T07:13:35.286Z,78.00
2023-08-06T07:16:01.852Z,78.48
2023-08-06T07:18:28.259Z,77.64
2023-08-06T07:20:55.460Z,78.14
2023-08-06T07:23:22.807Z,77.14
2023-08-06T07:25:49.413Z,78.34
2023-08-06T07:28:16.528Z,78.14
2023-08-06T07:30:43.786Z,78.59
2023-08-06T07:33:10.363Z,78.19
2023-08-06T07:35:37.267Z,79.98
2023-08-06T07:38:03.866Z,78.26
2023-08-06T07:40:30.310Z,77.64
2023-08-06T07:42:56.647Z,78.93
2023-08-06T07:45:23.043Z,78.78
2023-08-06T07:47:49.523Z,78.95
2023-08-06T07:50:16.173Z,79.80
2023-08-06T07:52:42.556Z,80.16
2023-08-06T07:55:09.136Z,81.69
2023-08-06T07:57:35.512Z,81.03
2023-08-06T08:00:02.380Z,80.98
2023-08-06T08:02:28.888Z,79.46
2023-08-06T08:04:55.361Z,80.15
2023-08-06T08:07:21.850Z,81.16
2023-08-06T08:09:49.619Z,81.94
2023-08-06T08:12:16.037Z,80.17
2023-08-06T08:14:42.730Z,80.43
2023-08-06T08:17:09.068Z,79.68
2023-08-06T08:19:35.440Z,79.16
2023-08-06T08:22:01.951Z,81.38
2023-08-06T08:24:28.433Z,79.13
2023-08-06T08:26:54.789Z,80.79
2023-08-06T08:29:22.301Z,79.07
2023-08-06T08:31:51.089Z,78.13
2023-08-06T08:34:18.250Z,80.88
2023-08-06T08:36:44.974Z,80.03
2023-08-06T08:39:11.327Z,79.27
2023-08-06T08:41:38.926Z,79.89
2023-08-06T08:44:06.356Z,80.93
2023-08-06T08:46:35.217Z,79.17
2023-08-06T08:49:03.279Z,78.15
2023-08-06T08:51:30.157Z,78.43
2023-08-06T08:53:58.337Z,78.09
2023-08-06T08:56:25.220Z,78.99
2023-08-06T08:58:54.217Z,79.15
2023-08-06T09:01:22.747Z,77.42
2023-08-06T09:03:49.339Z,75.90
2023-08-06T09:06:16.602Z,77.94
2023-08-06T09:08:50.410Z,78.80
2023-08-06T09:11:17.329Z,78.02
2023-08-06T09:13:43.747Z,76.49
2023-08-06T09:16:10.272Z,76.61
2023-08-06T09:18:40.008Z,76.00
2023-08-06T09:21:06.415Z,77.58
2023-08-06T09:23:34.292Z,77.23
2023-08-06T09:26:01.002Z,76.30
2023-08-06T09:28:40.480Z,76.24
2023-08-06T09:31:06.889Z,76.66
2023-08-06T09:33:33.335Z,75.59
2023-08-06T09:36:09.743Z,76.46
2023-08-06T09:38:40.259Z,75.33
2023-08-06T09:41:06.875Z,76.52
2023-08-06T09:43:43.782Z,77.54
2023-08-06T09:46:15.269Z,75.69
2023-08-06T09:48:42.923Z,74.87
2023-08-06T09:51:10.340Z,75.94
2023-08-06T09:53:38.199Z,76.15
2023-08-06T09:56:04.829Z,75.13
2023-08-06T09:58:33.165Z,75.07
2023-08-06T10:01:01.547Z,75.00
2023-08-06T10:03:29.034Z,73.33
2023-08-06T10:05:56.772Z,74.22
2023-08-06T10:08:24.023Z,73.62
2023-08-06T10:10:51.771Z,73.59
2023-08-06T10:13:20.556Z,72.75
2023-08-06T10:15:47.504Z,71.63
2023-08-06T10:18:15.257Z,73.48
2023-08-06T10:20:41.646Z,73.87
2023-08-06T10:23:09.782Z,74.05
2023-08-06T10:25:37.085Z,73.26
2023-08-06T10:28:16.094Z,74.52
2023-08-06T10:30:44.457Z,74.35
2023-08-06T10:33:10.864Z,74.05
2023-08-06T10:35:39.036Z,73.30
2023-08-06T10:38:26.357Z,73.43
2023-08-06T10:40:55.722Z,72.50
2023-08-06T10:43:40.766Z,72.58
2023-08-06T10:46:11.759Z,72.34
2023-08-06T10:48:38.812Z,71.95
2023-08-06T10:51:12.224Z,71.50
2023-08-06T10:53:39.691Z,71.26
2023-08-06T10:56:20.238Z,70.05
2023-08-06T10:58:47.550Z,69.84
2023-08-06T11:01:14.285Z,70.10
2023-08-06T11:03:41.359Z,70.36
2023-08-06T11:06:08.636Z,69.26
2023-08-06T11:08:36.770Z,69.52
2023-08-06T11:11:14.140Z,69.47
2023-08-06T11:13:41.804Z,68.36
2023-08-06T11:16:08.964Z,68.08
2023-08-06T11:18:35.370Z,67.23
2023-08-06T11:21:02.120Z,68.70
2023-08-06T11:23:32.471Z,68.03
2023-08-06T11:25:59.081Z,67.70
2023-08-06T11:28:25.778Z,67.56
2023-08-06T11:30:52.689Z,68.33
2023-08-06T11:33:23.670Z,68.49
2023-08-06T11:35:50.467Z,67.88
2023-08-06T11:38:17.630Z,69.42
2023-08-06T11:40:48.419Z,68.33
2023-08-06T11:43:15.317Z,68.03
2023-08-06T11:45:41.890Z,67.75
2023-08-06T11:48:11.926Z,66.78
2023-08-06T11:50:39.886Z,66.88
2023-08-06T11:53:06.714Z,66.75
2023-08-06T11:55:33.746Z,67.74
2023-08-06T11:58:04.314Z,67.69
2023-08-06T12:00:30.717Z,67.74
2023-08-06T12:02:57.178Z,66.75
2023-08-06T12:05:25.214Z,65.28
2023-08-06T12:07:53.271Z,64.88
2023-08-06T12:10:23.163Z,64.93
2023-08-06T12:12:49.639Z,66.24
2023-08-06T12:15:16.013Z,64.57
2023-08-06T12:17:42.801Z,62.96
2023-08-06T12:20:10.180Z,62.81
2023-08-06T12:22:38.438Z,62.51
2023-08-06T12:25:09.457Z,62.79
2023-08-06T12:27:37.073Z,60.93
2023-08-06T12:30:04.771Z,60.39
2023-08-06T12:32:31.366Z,61.51
2023-08-06T12:34:57.737Z,61.70
2023-08-06T12:37:26.051Z,60.92
2023-08-06T12:39:52.555Z,59.25
2023-08-06T12:42:18.902Z,59.07
2023-08-06T12:44:45.347Z,58.76
2023-08-06T12:47:11.761Z,59.06
2023-08-06T12:49:38.151Z,57.92
2023-08-06T12:52:07.480Z,57.88
2023-08-06T12:54:40.070Z,57.18
2023-08-06T12:57:06.703Z,58.30
2023-08-06T12:59:37.849Z,58.29
2023-08-06T13:02:05.018Z,58.18
2023-08-06T13:04:32.085Z,57.05
2023-08-06T13:06:58.595Z,56.46
2023-08-06T13:09:25.817Z,57.01
2023-08-06T13:11:52.545Z,57.09
2023-08-06T13:14:19.171Z,56.77
2023-08-06T13:16:46.020Z,56.10
2023-08-06T13:19:14.282Z,56.69
2023-08-06T13:21:46.950Z,58.06
2023-08-06T13:24:13.306Z,57.01
2023-08-06T13:26:39.833Z,57.48
2023-08-06T13:29:08.313Z,57.69
2023-08-06T13:31:34.755Z,58.19
2023-08-06T13:34:01.259Z,58.19
2023-08-06T13:36:28.168Z,56.18
2023-08-06T13:38:54.861Z,56.43
2023-08-06T13:41:21.496Z,55.81
2023-08-06T13:43:47.932Z,55.17
2023-08-06T13:46:19.171Z,55.13
2023-08-06T13:48:47.320Z,56.50
2023-08-06T13:51:14.344Z,55.90
2023-08-06T13:53:41.221Z,55.75
2023-08-06T13:56:08.255Z,56.92
2023-08-06T13:58:34.716Z,55.32
2023-08-06T14:01:01.086Z,55.09
2023-08-06T14:03:27.888Z,54.38
2023-08-06T14:05:57.385Z,54.23
2023-08-06T14:08:24.657Z,54.98
2023-08-06T14:10:52.002Z,53.96
2023-08-06T14:13:18.941Z,53.38
2023-08-06T14:15:47.933Z,54.26
2023-08-06T14:18:15.273Z,56.93
2023-08-06T14:20:42.349Z,54.82
2023-08-06T14:23:09.045Z,52.95
2023-08-06T14:25:35.630Z,52.83
2023-08-06T14:28:02.057Z,53.67
2023-08-06T14:30:28.410Z,52.71
2023-08-06T14:32:54.794Z,52.53
2023-08-06T14:35:21.153Z,51.57
2023-08-06T14:37:47.547Z,52.44
2023-08-06T14:40:13.980Z,53.84
2023-08-06T14:42:40.765Z,53.34
2023-08-06T14:45:07.547Z,54.00
2023-08-06T14:47:33.923Z,54.84
2023-08-06T14:50:00.508Z,52.77
2023-08-06T14:52:27.260Z,54.04
2023-08-06T14:54:56.441Z,53.79
2023-08-06T14:57:28.553Z,54.32
2023-08-06T14:59:55.389Z,53.61
2023-08-06T15:02:22.019Z,52.88
2023-08-06T15:04:48.828Z,53.04
2023-08-06T15:07:15.267Z,51.88
2023-08-06T15:10:04.083Z,52.56
2023-08-06T15:12:27.920Z,52.27
2023-08-06T15:14:57.727Z,52.39
2023-08-06T15:17:24.335Z,52.91
2023-08-06T15:19:50.795Z,52.15
2023-08-06T15:22:17.153Z,53.03
2023-08-06T15:24:43.524Z,52.54
2023-08-06T15:27:10.313Z,53.05
2023-08-06T15:29:36.885Z,51.96
2023-08-06T15:32:03.814Z,51.86
2023-08-06T15:34:30.269Z,52.38
2023-08-06T15:36:56.671Z,52.47
2023-08-06T15:39:23.067Z,53.81
2023-08-06T15:41:49.477Z,54.05
2023-08-06T15:44:15.863Z,54.02
2023-08-06T15:46:42.269Z,55.39
2023-08-06T15:49:08.661Z,54.87
2023-08-06T15:51:35.202Z,55.70
2023-08-06T15:54:01.592Z,54.63
2023-08-06T15:56:28.011Z,55.33
2023-08-06T15:58:55.338Z,55.01
2023-08-06T16:01:21.846Z,53.79
2023-08-06T16:03:48.248Z,54.84
2023-08-06T16:06:14.698Z,54.39
2023-08-06T16:08:41.121Z,52.98
2023-08-06T16:11:08.415Z,53.43
2023-08-06T16:13:34.768Z,54.13
2023-08-06T16:16:01.138Z,54.74
2023-08-06T16:18:27.540Z,54.43
2023-08-06T16:20:54.743Z,54.39
2023-08-06T16:23:21.101Z,55.26
2023-08-06T16:25:48.571Z,56.16
2023-08-06T16:28:14.932Z,55.15
2023-08-06T16:30:47.949Z,55.25
2023-08-06T16:33:14.322Z,55.52
2023-08-06T16:35:41.567Z,56.03
2023-08-06T16:38:08.122Z,56.01
2023-08-06T16:40:34.616Z,56.11
2023-08-06T16:43:00.995Z,57.32
2023-08-06T16:45:27.365Z,59.10
2023-08-06T16:47:53.789Z,59.08
2023-08-06T16:50:20.991Z,58.85
2023-08-06T16:52:47.393Z,60.31
2023-08-06T16:55:15.589Z,61.37
2023-08-06T16:57:41.938Z,60.80
2023-08-06T17:00:08.615Z,61.21
2023-08-06T17:02:35.159Z,61.42
2023-08-06T17:05:01.558Z,61.67
2023-08-06T17:07:27.974Z,62.54
2023-08-06T17:09:54.349Z,61.67
2023-08-06T17:12:22.014Z,61.39
2023-08-06T17:14:48.415Z,61.18
2023-08-06T17:17:15.123Z,62.56
2023-08-06T17:19:44.364Z,61.13
2023-08-06T17:22:11.172Z,61.99
2023-08-06T17:24:38.382Z,61.14
2023-08-06T17:27:04.851Z,61.45
2023-08-06T17:29:31.227Z,61.90
2023-08-06T17:31:57.654Z,61.53
2023-08-06T17:34:24.158Z,61.15
2023-08-06T17:36:50.517Z,62.12
2023-08-06T17:39:16.846Z,61.26
2023-08-06T17:41:44.634Z,61.15
2023-08-06T17:44:13.159Z,61.58
2023-08-06T17:46:39.554Z,60.68
2023-08-06T17:49:06.049Z,61.55
2023-08-06T17:51:32.500Z,60.69
2023-08-06T17:53:58.841Z,60.47
2023-08-06T17:56:25.402Z,61.96
2023-08-06T17:58:51.859Z,61.34
2023-08-06T18:01:18.242Z,60.50
2023-08-06T18:03:46.896Z,61.64
2023-08-06T18:06:13.634Z,61.57
2023-08-06T18:08:40.014Z,61.11
2023-08-06T18:11:06.355Z,62.28
2023-08-06T18:13:32.681Z,62.27
2023-08-06T18:15:59.051Z,63.74
2023-08-06T18:18:26.309Z,62.30
2023-08-06T18:20:52.672Z,63.20
2023-08-06T18:23:19.219Z,63.28
2023-08-06T18:25:45.676Z,63.46
2023-08-06T18:28:12.099Z,63.83
2023-08-06T18:30:40.639Z,64.55
2023-08-06T18:33:07.675Z,64.51
2023-08-06T18:35:34.152Z,64.13
2023-08-06T18:38:00.978Z,63.87
2023-08-06T18:40:29.512Z,64.13
2023-08-06T18:42:55.892Z,64.97
2023-08-06T18:45:22.240Z,63.78
2023-08-06T18:47:48.599Z,64.20
2023-08-06T18:50:15.088Z,65.37
2023-08-06T18:52:41.476Z,65.86
2023-08-06T18:55:08.178Z,66.46
2023-08-06T18:57:34.594Z,65.14
2023-08-06T19:00:01.085Z,66.40
2023-08-06T19:02:28.390Z,67.24
2023-08-06T19:04:55.806Z,66.69
2023-08-06T19:07:22.321Z,66.33
2023-08-06T19:09:49.173Z,67.47
2023-08-06T19:12:16.382Z,66.43
2023-08-06T19:14:43.071Z,66.91
2023-08-06T19:17:09.761Z,66.76
2023-08-06T19:19:36.212Z,67.54
2023-08-06T19:22:02.559Z,68.35
2023-08-06T19:24:28.992Z,68.56
2023-08-06T19:26:55.411Z,69.06
2023-08-06T19:29:21.758Z,68.31
2023-08-06T19:32:05.266Z,68.52
2023-08-06T19:34:33.093Z,70.27
2023-08-06T19:37:00.200Z,69.82
2023-08-06T19:39:27.026Z,69.51
2023-08-06T19:41:54.232Z,69.38
2023-08-06T19:44:21.165Z,70.55
2023-08-06T19:46:47.937Z,70.80
2023-08-06T19:49:14.843Z,70.05
2023-08-06T19:51:41.454Z,70.49
2023-08-06T19:54:08.380Z,69.63
2023-08-06T19:56:35.410Z,69.45
2023-08-06T19:59:02.444Z,70.58
2023-08-06T20:01:29.262Z,70.27
2023-08-06T20:03:55.764Z,70.62
2023-08-06T20:06:28.196Z,71.59
2023-08-06T20:08:58.753Z,72.43
2023-08-06T20:11:25.820Z,72.29
2023-08-06T20:13:52.235Z,71.23
2023-08-06T20:16:19.057Z,72.65
2023-08-06T20:18:45.889Z,70.89
2023-08-06T20:21:12.322Z,71.16
2023-08-06T20:23:38.820Z,71.87
2023-08-06T20:26:05.207Z,70.41
2023-08-06T20:28:32.208Z,71.57
2023-08-06T20:30:58.948Z,72.13
2023-08-06T20:33:25.338Z,70.72
2023-08-06T20:35:51.956Z,72.85
2023-08-06T20:38:19.950Z,74.16
2023-08-06T20:40:46.811Z,72.08
2023-08-06T20:43:13.369Z,72.06
2023-08-06T20:45:41.157Z,71.97
2023-08-06T20:48:08.322Z,71.43
2023-08-06T20:50:34.895Z,72.38
2023-08-06T20:53:01.248Z,73.20
2023-08-06T20:55:27.917Z,73.54
2023-08-06T20:57:54.447Z,73.39
2023-08-06T21:00:21.125Z,72.78
2023-08-06T21:02:47.728Z,72.76
2023-08-06T21:05:14.449Z,73.67
2023-08-06T21:07:41.023Z,74.31
2023-08-06T21:10:07.744Z,74.31
2023-08-06T21:12:34.255Z,74.42
2023-08-06T21:15:00.694Z,73.83
2023-08-06T21:17:27.196Z,74.25
2023-08-06T21:19:53.660Z,74.31
2023-08-06T21:22:20.034Z,75.36
2023-08-06T21:24:46.425Z,74.77
2023-08-06T21:27:12.920Z,74.06
2023-08-06T21:29:40.677Z,73.15
2023-08-06T21:32:07.960Z,75.22
2023-08-06T21:34:34.350Z,75.22
2023-08-06T21:37:00.695Z,76.48
2023-08-06T21:39:27.839Z,75.94
2023-08-06T21:41:54.422Z,75.22
2023-08-06T21:44:20.949Z,75.50
2023-08-06T21:46:47.306Z,76.13
2023-08-06T21:49:14.175Z,75.62
2023-08-06T21:51:41.113Z,76.18
2023-08-06T21:54:07.534Z,75.13
2023-08-06T21:56:34.148Z,75.07
2023-08-06T21:59:00.880Z,76.40
2023-08-06T22:01:30.954Z,77.28
2023-08-06T22:03:58.252Z,77.31
2023-08-06T22:06:24.793Z,78.35
2023-08-06T22:08:54.229Z,78.73
2023-08-06T22:11:20.572Z,76.59
2023-08-06T22:13:47.098Z,78.23
2023-08-06T22:16:13.475Z,79.65
2023-08-06T22:18:39.871Z,79.47
2023-08-06T22:21:06.440Z,79.23
2023-08-06T22:23:33.008Z,79.63
2023-08-06T22:25:59.438Z,79.72
2023-08-06T22:28:26.130Z,79.05
2023-08-06T22:30:53.104Z,78.24
2023-08-06T22:33:20.062Z,78.23
2023-08-06T22:35:46.983Z,78.96
2023-08-06T22:38:13.555Z,79.17
2023-08-06T22:40:39.947Z,79.75
2023-08-06T22:43:06.592Z,78.69
2023-08-06T22:45:32.995Z,80.75
2023-08-06T22:47:59.416Z,78.78
2023-08-06T22:50:26.071Z,79.30
2023-08-06T22:52:52.618Z,79.38
2023-08-06T22:55:32.205Z,78.86
2023-08-06T22:58:05.292Z,78.00
2023-08-06T23:00:31.881Z,79.56
2023-08-06T23:03:09.135Z,78.07
2023-08-06T23:05:37.016Z,79.07
2023-08-06T23:08:03.471Z,78.45
2023-08-06T23:10:29.872Z,77.90
2023-08-06T23:12:56.460Z,78.00
2023-08-06T23:15:22.814Z,76.32
2023-08-06T23:17:49.252Z,76.05
2023-08-06T23:20:15.708Z,76.72
2023-08-06T23:22:42.567Z,76.71
2023-08-06T23:25:09.160Z,75.71
2023-08-06T23:27:35.523Z,75.82
2023-08-06T23:30:02.186Z,75.06
2023-08-06T23:32:29.741Z,75.03
2023-08-06T23:34:56.180Z,75.61
2023-08-06T23:37:22.557Z,75.97
2023-08-06T23:39:53.915Z,74.95
2023-08-06T23:42:20.846Z,74.49
2023-08-06T23:44:47.188Z,75.16
2023-08-06T23:47:13.608Z,74.39
2023-08-06T23:49:40.033Z,75.17
2023-08-06T23:52:06.758Z,75.37
2023-08-06T23:54:33.108Z,75.57
2023-08-06T23:56:59.475Z,76.07
2023-08-06T23:59:25.832Z,75.58
